METAR Data
IDs: Format: Raw Decoded Include TAF

Data at: 0810 UTC 01 Aug 2021

EGNT 010750Z 34007KT 9999 FEW015 BKN045 13/10 Q1012